Etusivu
METAR-TAF:

METAR-TAF

Lentoasemat :

Le Luc, Ranska

Leveyspiiri: 43-23N, Pituuspiiri: 006-23E, korkeus merenpinnasta: 80 m

Tämänhetkinen sää

Tämä raportti tehtiin 30 minuuttia sitten, kello 15.30 UTC
Tuuli 13 kn idästä
Lämpötila 23°C
Kosteus 69%
Ilmanpaine 1016 hPa
Näkyvyys 10 km tai enemmän

METAR: LFMC 141530Z AUTO 10013KT 9999 // ////// 23/17 Q1016

Aika: 18:00 (16:00 UTC)


TAF: puuttuu

Säähavainnot ja -ennusteet yli 4000 lentoasemalta (METAR- ja TAF-raportit).

Käytössä olevat sääasemat on merkitty karttaan keltaisilla ja punaisilla pisteillä.

Aseta hiiri pisteen päälle nähdäksesi sääaseman nimen.

Klikkaa sitten nähdäksesi säähavainnot ja -ennusteet.

Kartan vaihtaminen: klikkaa mustalla rastilla varustettuja vihreitä pisteitä, niin voit zoomata sisään; viivalla varustettua vihreää pistettä, niin voit zoomata ulos tai vihreitä nuolia, niin pääset viereisille kartoille.


METAR-TAF: